PWSweather.com
Personal Weather Stations
Station Observations
MDHALE1
Southwest Baltimore Co., Halethorpe, MD 21227

Southwest Baltimore Co.Halethorpe, MD 21227

Lat: 39.23643, Lon: -76.696959

Elevation: 86

Station Type: Davis Vantage Pro2+

http://www.halethorpeweather.com

Latest ConditionsUpdated 9:45:01 AM EDT Sunday, Jun 25, 2017
Currently Today's Max Today's Min Today's Average
Temperature 77.4°F25.2°C 77.4°F25.2°C 69.2°F20.7°C 72.2°F22.3°C
Dew Point 63.3°F17.4°C 64.1°F17.8°C 59.7°F15.4°C 61.3°F16.3°C
Winds 1.2 mph NW1.9 kmh NW 2.3 mph WNW3.7 kmh WNW - 0.6 mph 1.0 kmh
Wind Gusts 3.5 mph5.6 kmh 6.9 mph11.1 kmh - -
Humidity 62% 75% 59% 69%
Pressure 30.02 in1016.6 mb 30.02 in1016.6 mb 29.94 in1013.9 mb -
Hour Temp Dew Point Humidity Winds Wind Gusts Pressure Precip Precip Rate Daily Precip Total
09:45 AM 77.4°F25.2°C 63.3°F17.4°C 62% 1.2 mph NW1.9 kmh NW 3.5 mph5.6 kmh 30.02 in1016.6 mb - 0.00 in0.0 mm 0.00 in0.0 mm
09:30 AM 77.4°F25.2°C 61.9°F16.6°C 59% 2.3 mph NW3.7 kmh NW 5.8 mph9.3 kmh 30.02 in1016.6 mb - 0.00 in0.0 mm 0.00 in0.0 mm
09:15 AM 76.6°F24.8°C 63.5°F17.5°C 64% Calm Calm 1.2 mph1.9 kmh 30.02 in1016.6 mb - 0.00 in0.0 mm 0.00 in0.0 mm
09:00 AM 76.2°F24.6°C 64.1°F17.8°C 66% 2.3 mph W3.7 kmh W 5.8 mph9.3 kmh 30.02 in1016.6 mb - 0.00 in0.0 mm 0.00 in0.0 mm
08:45 AM 75.3°F24.1°C 63.2°F17.3°C 66% 2.3 mph W3.7 kmh W 3.5 mph5.6 kmh 30.02 in1016.6 mb - 0.00 in0.0 mm 0.00 in0.0 mm
08:30 AM 75.2°F24.0°C 62.2°F16.8°C 64% 2.3 mph WNW3.7 kmh WNW 1.2 mph1.9 kmh 30.01 in1016.3 mb - 0.00 in0.0 mm 0.00 in0.0 mm
08:15 AM 75.0°F23.9°C 62.8°F17.1°C 66% 1.2 mph W1.9 kmh W 6.9 mph11.1 kmh 30.01 in1016.3 mb - 0.00 in0.0 mm 0.00 in0.0 mm
08:04 AM 72.9°F22.7°C 62.1°F16.7°C 69% Calm Calm -- 30.01 in1016.3 mb - 0.00 in0.0 mm 0.00 in0.0 mm
08:00 AM 72.3°F22.4°C 62.0°F16.7°C 70% Calm Calm -- 30.01 in1016.3 mb - 0.00 in0.0 mm 0.00 in0.0 mm
07:45 AM 71.8°F22.1°C 62.3°F16.8°C 72% Calm Calm 1.2 mph1.9 kmh 30.00 in1015.9 mb - 0.00 in0.0 mm 0.00 in0.0 mm
07:30 AM 71.5°F21.9°C 61.6°F16.4°C 71% Calm Calm -- 30.01 in1016.3 mb - 0.00 in0.0 mm 0.00 in0.0 mm
07:15 AM 71.2°F21.8°C 61.3°F16.3°C 71% Calm Calm -- 30.00 in1015.9 mb - 0.00 in0.0 mm 0.00 in0.0 mm
07:00 AM 70.4°F21.3°C 61.4°F16.3°C 73% Calm Calm -- 29.99 in1015.6 mb - 0.00 in0.0 mm 0.00 in0.0 mm
06:45 AM 69.4°F20.8°C 61.2°F16.2°C 75% Calm Calm -- 29.99 in1015.6 mb - 0.00 in0.0 mm 0.00 in0.0 mm
06:30 AM 69.2°F20.7°C 60.9°F16.1°C 75% Calm Calm -- 29.98 in1015.2 mb - 0.00 in0.0 mm 0.00 in0.0 mm
06:15 AM 69.2°F20.7°C 60.2°F15.7°C 73% Calm Calm -- 29.98 in1015.2 mb - 0.00 in0.0 mm 0.00 in0.0 mm
06:00 AM 69.4°F20.8°C 60.0°F15.6°C 72% Calm Calm -- 29.97 in1014.9 mb - 0.00 in0.0 mm 0.00 in0.0 mm
05:45 AM 69.4°F20.8°C 60.0°F15.6°C 72% Calm Calm -- 29.97 in1014.9 mb - 0.00 in0.0 mm 0.00 in0.0 mm
05:30 AM 69.5°F20.8°C 59.7°F15.4°C 71% Calm Calm -- 29.96 in1014.6 mb - 0.00 in0.0 mm 0.00 in0.0 mm
05:15 AM 69.7°F20.9°C 59.9°F15.5°C 71% Calm Calm 2.3 mph3.7 kmh 29.96 in1014.6 mb - 0.00 in0.0 mm 0.00 in0.0 mm
05:00 AM 69.9°F21.1°C 60.1°F15.6°C 71% 1.2 mph WNW1.9 kmh WNW 1.2 mph1.9 kmh 29.95 in1014.2 mb - 0.00 in0.0 mm 0.00 in0.0 mm
04:45 AM 70.1°F21.2°C 60.3°F15.7°C 71% Calm Calm 1.2 mph1.9 kmh 29.95 in1014.2 mb - 0.00 in0.0 mm 0.00 in0.0 mm
04:30 AM 70.9°F21.6°C 60.2°F15.7°C 69% Calm Calm 3.5 mph5.6 kmh 29.94 in1013.9 mb - 0.00 in0.0 mm 0.00 in0.0 mm
04:15 AM 71.4°F21.9°C 60.3°F15.7°C 68% Calm Calm -- 29.94 in1013.9 mb - 0.00 in0.0 mm 0.00 in0.0 mm
04:00 AM 71.7°F22.1°C 60.2°F15.7°C 67% Calm Calm -- 29.94 in1013.9 mb - 0.00 in0.0 mm 0.00 in0.0 mm
03:45 AM 71.7°F22.1°C 60.6°F15.9°C 68% Calm Calm -- 29.94 in1013.9 mb - 0.00 in0.0 mm 0.00 in0.0 mm
03:30 AM 71.6°F22.0°C 60.5°F15.8°C 68% 2.3 mph NW3.7 kmh NW 4.6 mph7.4 kmh 29.94 in1013.9 mb - 0.00 in0.0 mm 0.00 in0.0 mm
03:15 AM 71.7°F22.1°C 61.0°F16.1°C 69% 2.3 mph NW3.7 kmh NW 4.6 mph7.4 kmh 29.94 in1013.9 mb - 0.00 in0.0 mm 0.00 in0.0 mm
03:00 AM 71.9°F22.2°C 61.2°F16.2°C 69% 2.3 mph NW3.7 kmh NW 3.5 mph5.6 kmh 29.94 in1013.9 mb - 0.00 in0.0 mm 0.00 in0.0 mm
02:45 AM 72.0°F22.2°C 61.3°F16.3°C 69% 2.3 mph WNW3.7 kmh WNW 6.9 mph11.1 kmh 29.94 in1013.9 mb - 0.00 in0.0 mm 0.00 in0.0 mm
02:30 AM 72.3°F22.4°C 61.1°F16.2°C 68% Calm Calm -- 29.95 in1014.2 mb - 0.00 in0.0 mm 0.00 in0.0 mm
02:15 AM 72.5°F22.5°C 61.4°F16.3°C 68% Calm Calm -- 29.95 in1014.2 mb - 0.00 in0.0 mm 0.00 in0.0 mm
02:00 AM 72.8°F22.7°C 61.2°F16.2°C 67% 1.2 mph W1.9 kmh W 1.2 mph1.9 kmh 29.95 in1014.2 mb - 0.00 in0.0 mm 0.00 in0.0 mm
01:45 AM 72.9°F22.7°C 61.3°F16.3°C 67% 1.2 mph W1.9 kmh W 4.6 mph7.4 kmh 29.94 in1013.9 mb - 0.00 in0.0 mm 0.00 in0.0 mm
01:30 AM 72.9°F22.7°C 60.9°F16.1°C 66% Calm Calm 6.9 mph11.1 kmh 29.94 in1013.9 mb - 0.00 in0.0 mm 0.00 in0.0 mm
01:15 AM 72.6°F22.6°C 61.0°F16.1°C 67% Calm Calm 4.6 mph7.4 kmh 29.95 in1014.2 mb - 0.00 in0.0 mm 0.00 in0.0 mm
01:00 AM 72.3°F22.4°C 60.7°F15.9°C 67% Calm Calm -- 29.95 in1014.2 mb - 0.00 in0.0 mm 0.00 in0.0 mm
12:45 AM 72.2°F22.3°C 61.0°F16.1°C 68% Calm Calm -- 29.95 in1014.2 mb - 0.00 in0.0 mm 0.00 in0.0 mm
12:30 AM 72.0°F22.2°C 61.3°F16.3°C 69% Calm Calm -- 29.95 in1014.2 mb - 0.00 in0.0 mm 0.00 in0.0 mm
12:15 AM 72.4°F22.4°C 61.3°F16.3°C 68% Calm Calm -- 29.95 in1014.2 mb - 0.00 in0.0 mm 0.00 in0.0 mm
12:01 AM 72.8°F22.7°C 61.2°F16.2°C 67% Calm Calm -- 29.95 in1014.2 mb - 0.00 in0.0 mm 0.00 in0.0 mm